createdAt,value
2023-03-18T00:00:11.573Z,6.32
2023-03-18T00:02:40.172Z,4.93
2023-03-18T00:05:08.888Z,5.05
2023-03-18T00:07:37.354Z,5.85
2023-03-18T00:10:06.525Z,5.38
2023-03-18T00:12:33.476Z,7.13
2023-03-18T00:15:00.883Z,5.20
2023-03-18T00:17:28.073Z,4.45
2023-03-18T00:19:55.211Z,6.82
2023-03-18T00:22:22.733Z,4.75
2023-03-18T00:24:49.468Z,4.60
2023-03-18T00:27:16.613Z,4.88
2023-03-18T00:29:43.826Z,5.03
2023-03-18T00:32:11.089Z,6.20
2023-03-18T00:34:37.857Z,5.35
2023-03-18T00:37:05.080Z,5.03
2023-03-18T00:39:33.117Z,6.20
2023-03-18T00:42:08.046Z,5.53
2023-03-18T00:44:34.905Z,4.55
2023-03-18T00:47:01.813Z,4.78
2023-03-18T00:49:28.662Z,4.05
2023-03-18T00:51:55.519Z,3.50
2023-03-18T00:54:24.681Z,4.90
2023-03-18T00:56:51.618Z,3.85
2023-03-18T00:59:18.702Z,4.45
2023-03-18T01:01:45.573Z,5.15
2023-03-18T01:04:12.816Z,5.72
2023-03-18T01:06:40.020Z,4.45
2023-03-18T01:09:11.182Z,4.03
2023-03-18T01:11:39.618Z,6.15
2023-03-18T01:14:06.701Z,5.47
2023-03-18T01:16:33.717Z,5.82
2023-03-18T01:19:00.672Z,4.38
2023-03-18T01:21:27.889Z,6.00
2023-03-18T01:24:01.489Z,7.55
2023-03-18T01:26:30.133Z,6.72
2023-03-18T01:28:59.643Z,5.45
2023-03-18T01:31:28.651Z,5.82
2023-03-18T01:34:00.036Z,4.57
2023-03-18T01:36:29.773Z,8.07
2023-03-18T01:39:07.004Z,5.07
2023-03-18T01:41:36.511Z,7.68
2023-03-18T01:44:04.854Z,5.47
2023-03-18T01:46:44.802Z,5.70
2023-03-18T01:49:23.284Z,8.25
2023-03-18T01:51:55.068Z,7.35
2023-03-18T01:54:23.941Z,7.00
2023-03-18T01:56:51.804Z,6.85
2023-03-18T01:59:21.554Z,6.28
2023-03-18T02:02:15.689Z,9.88
2023-03-18T02:04:50.336Z,6.45
2023-03-18T02:07:20.997Z,6.55
2023-03-18T02:09:50.554Z,7.90
2023-03-18T02:12:23.675Z,7.20
2023-03-18T02:14:53.469Z,7.82
2023-03-18T02:17:24.928Z,11.90
2023-03-18T02:19:57.793Z,10.40
2023-03-18T02:22:50.733Z,7.05
2023-03-18T02:25:37.358Z,9.40
2023-03-18T02:28:10.188Z,9.48
2023-03-18T02:30:51.082Z,9.15
2023-03-18T02:33:21.188Z,9.75
2023-03-18T02:35:53.131Z,10.25
2023-03-18T02:38:20.426Z,11.90
2023-03-18T02:40:48.903Z,9.50
2023-03-18T02:43:27.266Z,9.30
2023-03-18T02:46:16.188Z,9.32
2023-03-18T02:48:44.946Z,11.43
2023-03-18T02:51:14.763Z,10.48
2023-03-18T02:53:42.210Z,8.15
2023-03-18T02:56:09.933Z,10.40
2023-03-18T02:58:37.754Z,10.80
2023-03-18T03:01:06.504Z,12.00
2023-03-18T03:03:35.055Z,12.85
2023-03-18T03:06:03.291Z,12.50
2023-03-18T03:08:31.162Z,10.50
2023-03-18T03:10:58.261Z,9.90
2023-03-18T03:13:26.114Z,10.88
2023-03-18T03:15:54.243Z,10.50
2023-03-18T03:18:21.845Z,9.48
2023-03-18T03:20:50.593Z,9.98
2023-03-18T03:23:20.492Z,11.77
2023-03-18T03:25:49.248Z,12.43
2023-03-18T03:28:16.638Z,11.23
2023-03-18T03:30:43.940Z,12.02
2023-03-18T03:33:10.944Z,10.70
2023-03-18T03:35:38.815Z,10.40
2023-03-18T03:38:06.393Z,10.23
2023-03-18T03:40:33.988Z,12.23
2023-03-18T03:43:00.838Z,11.27
2023-03-18T03:45:27.936Z,13.55
2023-03-18T03:47:54.765Z,12.82
2023-03-18T03:50:21.766Z,9.18
2023-03-18T03:52:49.219Z,11.45
2023-03-18T03:55:18.484Z,14.88
2023-03-18T03:57:46.151Z,9.93
2023-03-18T04:00:16.591Z,11.13
2023-03-18T04:02:49.064Z,12.88
2023-03-18T04:05:19.602Z,11.07
2023-03-18T04:07:47.666Z,9.38
2023-03-18T04:10:17.314Z,11.07
2023-03-18T04:12:47.947Z,10.75
2023-03-18T04:15:17.386Z,9.18
2023-03-18T04:17:46.906Z,12.90
2023-03-18T04:20:17.208Z,12.82
2023-03-18T04:22:45.174Z,10.68
2023-03-18T04:25:14.703Z,10.88
2023-03-18T04:27:42.175Z,11.13
2023-03-18T04:30:12.710Z,9.50
2023-03-18T04:32:52.796Z,12.25
2023-03-18T04:35:19.720Z,13.10
2023-03-18T04:37:46.926Z,9.98
2023-03-18T04:40:13.775Z,10.40
2023-03-18T04:42:40.608Z,11.68
2023-03-18T04:45:10.234Z,9.52
2023-03-18T04:47:38.236Z,10.45
2023-03-18T04:50:05.624Z,10.60
2023-03-18T04:52:32.472Z,12.85
2023-03-18T04:55:00.319Z,11.23
2023-03-18T04:57:28.492Z,13.75
2023-03-18T04:59:56.594Z,9.88
2023-03-18T05:02:24.618Z,12.50
2023-03-18T05:04:51.368Z,9.52
2023-03-18T05:07:19.094Z,11.70
2023-03-18T05:09:57.707Z,10.20
2023-03-18T05:12:25.613Z,11.65
2023-03-18T05:14:52.906Z,11.30
2023-03-18T05:17:20.622Z,12.95
2023-03-18T05:19:55.276Z,13.38
2023-03-18T05:22:23.472Z,8.60
2023-03-18T05:24:57.108Z,8.43
2023-03-18T05:27:28.309Z,13.55
2023-03-18T05:30:01.130Z,11.55
2023-03-18T05:32:54.074Z,11.57
2023-03-18T05:35:32.421Z,8.77
2023-03-18T05:37:59.379Z,10.27
2023-03-18T05:40:26.116Z,10.63
2023-03-18T05:43:12.049Z,12.10
2023-03-18T05:45:46.405Z,10.18
2023-03-18T05:48:19.813Z,11.13
2023-03-18T05:50:53.141Z,12.48
2023-03-18T05:53:24.558Z,10.65
2023-03-18T05:55:59.814Z,9.93
2023-03-18T05:58:31.097Z,9.50
2023-03-18T06:01:11.406Z,12.40
2023-03-18T06:03:38.215Z,8.82
2023-03-18T06:06:05.568Z,9.50
2023-03-18T06:08:33.042Z,14.77
2023-03-18T06:10:59.772Z,13.07
2023-03-18T06:13:26.753Z,10.52
2023-03-18T06:15:57.884Z,13.82
2023-03-18T06:18:24.705Z,10.10
2023-03-18T06:20:51.686Z,10.38
2023-03-18T06:23:18.773Z,10.38
2023-03-18T06:25:46.651Z,11.88
2023-03-18T06:28:15.925Z,9.30
2023-03-18T06:30:43.016Z,8.77
2023-03-18T06:33:11.305Z,12.02
2023-03-18T06:35:38.342Z,8.30
2023-03-18T06:38:05.620Z,11.23
2023-03-18T06:40:36.002Z,8.85
2023-03-18T06:43:03.253Z,8.82
2023-03-18T06:45:37.336Z,12.48
2023-03-18T06:48:06.913Z,11.43
2023-03-18T06:50:37.035Z,9.48
2023-03-18T06:53:05.433Z,13.20
2023-03-18T06:55:34.410Z,10.63
2023-03-18T06:58:03.798Z,8.77
2023-03-18T07:00:42.238Z,9.48
2023-03-18T07:03:15.809Z,9.00
2023-03-18T07:05:43.001Z,7.30
2023-03-18T07:08:11.151Z,7.40
2023-03-18T07:10:37.987Z,8.32
2023-03-18T07:13:10.584Z,9.80
2023-03-18T07:15:39.956Z,9.75
2023-03-18T07:18:07.667Z,9.85
2023-03-18T07:20:34.603Z,7.47
2023-03-18T07:23:01.989Z,6.45
2023-03-18T07:25:29.985Z,8.02
2023-03-18T07:27:57.537Z,7.22
2023-03-18T07:30:24.270Z,9.38
2023-03-18T07:32:51.263Z,8.13
2023-03-18T07:35:18.536Z,7.22
2023-03-18T07:37:45.389Z,10.52
2023-03-18T07:40:13.005Z,7.95
2023-03-18T07:42:39.887Z,7.53
2023-03-18T07:45:08.176Z,6.80
2023-03-18T07:47:35.431Z,9.05
2023-03-18T07:50:02.650Z,8.40
2023-03-18T07:52:29.486Z,7.50
2023-03-18T07:54:56.443Z,8.95
2023-03-18T07:57:24.056Z,6.45
2023-03-18T07:59:50.970Z,6.47
2023-03-18T08:02:17.676Z,10.30
2023-03-18T08:04:46.624Z,56.58
2023-03-18T08:07:13.976Z,73.35
2023-03-18T08:09:41.243Z,45.45
2023-03-18T08:12:08.461Z,20.38
2023-03-18T08:14:35.481Z,50.10
2023-03-18T08:17:03.680Z,34.75
2023-03-18T08:19:30.586Z,28.02
2023-03-18T08:21:57.517Z,41.40
2023-03-18T08:24:24.627Z,33.47
2023-03-18T08:26:51.966Z,18.30
2023-03-18T08:29:18.955Z,11.05
2023-03-18T08:31:45.946Z,6.63
2023-03-18T08:34:14.017Z,15.45
2023-03-18T08:36:42.628Z,12.90
2023-03-18T08:39:12.614Z,22.90
2023-03-18T08:41:40.132Z,8.30
2023-03-18T08:44:08.422Z,18.75
2023-03-18T08:46:35.208Z,9.35
2023-03-18T08:49:02.137Z,12.88
2023-03-18T08:51:29.117Z,10.85
2023-03-18T08:53:56.347Z,8.82
2023-03-18T08:56:23.097Z,13.98
2023-03-18T08:58:50.941Z,15.82
2023-03-18T09:01:21.840Z,13.05
2023-03-18T09:03:49.612Z,17.55
2023-03-18T09:06:17.148Z,6.03
2023-03-18T09:08:44.806Z,8.45
2023-03-18T09:11:11.692Z,6.13
2023-03-18T09:13:39.296Z,16.27
2023-03-18T09:16:07.266Z,6.10
2023-03-18T09:18:35.301Z,6.40
2023-03-18T09:21:03.165Z,4.55
2023-03-18T09:23:29.918Z,7.15
2023-03-18T09:25:57.167Z,4.93
2023-03-18T09:28:24.105Z,6.32
2023-03-18T09:30:51.117Z,5.15
2023-03-18T09:33:18.524Z,4.97
2023-03-18T09:35:46.855Z,5.82
2023-03-18T09:38:16.816Z,5.47
2023-03-18T09:41:06.409Z,4.22
2023-03-18T09:43:48.303Z,3.85
2023-03-18T09:46:40.888Z,6.60
2023-03-18T09:49:38.966Z,5.13
2023-03-18T09:52:23.993Z,5.63
2023-03-18T09:55:21.519Z,6.57
2023-03-18T09:57:51.559Z,4.80
2023-03-18T10:00:29.926Z,4.45
2023-03-18T10:03:15.158Z,6.50
2023-03-18T10:05:55.213Z,4.40
2023-03-18T10:08:44.294Z,5.15
2023-03-18T10:11:22.026Z,7.70
2023-03-18T10:14:36.071Z,11.68
2023-03-18T10:17:27.111Z,9.73
2023-03-18T10:20:00.712Z,20.13
2023-03-18T10:22:44.086Z,5.57
2023-03-18T10:25:17.720Z,4.78
2023-03-18T10:27:58.083Z,6.10
2023-03-18T10:30:43.712Z,10.07
2023-03-18T10:33:36.375Z,18.63
2023-03-18T10:36:12.707Z,20.17
2023-03-18T10:38:47.971Z,36.53
2023-03-18T10:41:38.447Z,34.47
2023-03-18T10:44:37.317Z,25.48
2023-03-18T10:47:15.747Z,17.85
2023-03-18T10:49:50.281Z,8.38
2023-03-18T10:52:25.218Z,3.67
2023-03-18T10:54:52.916Z,3.53
2023-03-18T10:57:21.854Z,3.35
2023-03-18T10:59:51.319Z,3.05
2023-03-18T11:02:20.928Z,3.75
2023-03-18T11:04:54.413Z,3.28
2023-03-18T11:07:28.403Z,3.22
2023-03-18T11:09:55.383Z,2.83
2023-03-18T11:12:29.073Z,3.33
2023-03-18T11:14:56.431Z,3.15
2023-03-18T11:17:30.088Z,2.67
2023-03-18T11:20:26.652Z,3.25
2023-03-18T11:22:56.072Z,3.63
2023-03-18T11:25:26.682Z,2.60
2023-03-18T11:28:02.490Z,3.30
2023-03-18T11:30:35.247Z,2.97
2023-03-18T11:33:13.338Z,3.28
2023-03-18T11:35:51.937Z,3.28
2023-03-18T11:38:30.326Z,3.30
2023-03-18T11:41:17.544Z,2.50
2023-03-18T11:44:00.102Z,3.35
2023-03-18T11:46:33.628Z,2.55
2023-03-18T11:49:00.486Z,4.22
2023-03-18T11:52:06.946Z,2.95
2023-03-18T11:54:47.112Z,2.60
2023-03-18T11:57:37.228Z,2.63
2023-03-18T12:00:25.327Z,2.65
2023-03-18T12:03:10.399Z,2.75
2023-03-18T12:06:19.468Z,2.97
2023-03-18T12:09:01.013Z,3.00
2023-03-18T12:12:06.962Z,2.63
2023-03-18T12:14:37.678Z,2.83
2023-03-18T12:17:33.870Z,2.83
2023-03-18T12:20:18.441Z,2.50
2023-03-18T12:23:00.941Z,3.40
2023-03-18T12:25:52.509Z,2.85
2023-03-18T12:28:37.308Z,3.80
2023-03-18T12:31:33.633Z,2.85
2023-03-18T12:34:02.970Z,3.25
2023-03-18T12:37:05.714Z,4.05
2023-03-18T12:40:06.367Z,4.13
2023-03-18T12:43:02.398Z,2.92
2023-03-18T12:45:45.219Z,3.13
2023-03-18T12:48:42.430Z,2.83
2023-03-18T12:51:18.350Z,2.35
2023-03-18T12:53:50.171Z,2.63
2023-03-18T12:56:21.454Z,2.38
2023-03-18T12:58:52.442Z,2.85
2023-03-18T13:01:24.294Z,2.10
2023-03-18T13:03:59.127Z,2.03
2023-03-18T13:06:44.352Z,2.20
2023-03-18T13:09:51.503Z,2.75
2023-03-18T13:12:27.763Z,2.97
2023-03-18T13:15:00.769Z,2.35
2023-03-18T13:17:32.956Z,1.83
2023-03-18T13:20:01.746Z,2.58
2023-03-18T13:22:51.637Z,2.47
2023-03-18T13:25:58.454Z,3.00
2023-03-18T13:28:44.562Z,1.77
2023-03-18T13:31:39.379Z,2.17
2023-03-18T13:34:28.229Z,1.77
2023-03-18T13:37:29.144Z,1.60
2023-03-18T13:40:28.923Z,2.10
2023-03-18T13:43:03.022Z,2.10
2023-03-18T13:45:37.683Z,1.40
2023-03-18T13:48:12.112Z,1.52
2023-03-18T13:50:42.250Z,2.55
2023-03-18T13:53:28.403Z,2.30
2023-03-18T13:55:58.144Z,1.80
2023-03-18T13:58:36.410Z,2.10
2023-03-18T14:01:15.636Z,3.35
2023-03-18T14:03:42.467Z,1.63
2023-03-18T14:06:09.192Z,2.35
2023-03-18T14:08:38.926Z,2.53
2023-03-18T14:11:17.717Z,2.00
2023-03-18T14:13:48.422Z,1.80
2023-03-18T14:16:20.315Z,1.85
2023-03-18T14:18:57.674Z,2.08
2023-03-18T14:21:28.157Z,2.78
2023-03-18T14:24:25.616Z,1.50
2023-03-18T14:26:58.209Z,2.92
2023-03-18T14:29:30.859Z,1.63
2023-03-18T14:32:02.540Z,13.15
2023-03-18T14:34:33.090Z,3.38
2023-03-18T14:37:00.197Z,11.80
2023-03-18T14:39:46.448Z,6.35
2023-03-18T14:42:34.630Z,6.55
2023-03-18T14:45:24.423Z,2.40
2023-03-18T14:47:54.344Z,1.45
2023-03-18T14:50:28.682Z,2.42
2023-03-18T14:53:11.168Z,5.15
2023-03-18T14:55:39.126Z,1.92
2023-03-18T14:58:07.010Z,9.07
2023-03-18T15:00:36.415Z,30.92
2023-03-18T15:03:11.762Z,11.13
2023-03-18T15:05:40.905Z,16.58
2023-03-18T15:08:19.718Z,1.98
2023-03-18T15:10:49.897Z,2.33
2023-03-18T15:13:19.606Z,2.40
2023-03-18T15:15:47.080Z,1.75
2023-03-18T15:18:34.364Z,1.30
2023-03-18T15:21:03.615Z,1.65
2023-03-18T15:23:40.073Z,1.98
2023-03-18T15:26:09.753Z,1.40
2023-03-18T15:28:37.383Z,3.25
2023-03-18T15:31:05.841Z,2.05
2023-03-18T15:33:38.039Z,2.80
2023-03-18T15:36:07.779Z,2.25
2023-03-18T15:38:34.728Z,2.22
2023-03-18T15:41:04.487Z,2.05
2023-03-18T15:43:41.596Z,2.28
2023-03-18T15:46:22.661Z,2.33
2023-03-18T15:48:55.756Z,1.73
2023-03-18T15:51:26.646Z,1.67
2023-03-18T15:53:59.049Z,1.75
2023-03-18T15:56:31.957Z,2.58
2023-03-18T15:59:15.790Z,1.67
2023-03-18T16:01:42.491Z,1.80
2023-03-18T16:04:13.822Z,1.63
2023-03-18T16:06:41.176Z,1.90
2023-03-18T16:09:15.545Z,1.40
2023-03-18T16:11:43.639Z,1.75
2023-03-18T16:14:16.185Z,1.70
2023-03-18T16:16:43.172Z,2.13
2023-03-18T16:19:25.303Z,2.13
2023-03-18T16:21:52.658Z,1.88
2023-03-18T16:24:19.650Z,2.50
2023-03-18T16:26:46.866Z,1.67
2023-03-18T16:29:16.751Z,2.53
2023-03-18T16:31:44.554Z,3.00
2023-03-18T16:34:16.168Z,1.70
2023-03-18T16:36:44.028Z,2.60
2023-03-18T16:39:19.838Z,1.70
2023-03-18T16:41:47.559Z,3.20
2023-03-18T16:44:19.482Z,2.47
2023-03-18T16:46:49.588Z,3.22
2023-03-18T16:49:21.907Z,2.60
2023-03-18T16:51:51.979Z,2.53
2023-03-18T16:54:23.858Z,3.78
2023-03-18T16:56:54.543Z,2.53
2023-03-18T16:59:22.217Z,2.67
2023-03-18T17:01:49.154Z,2.63
2023-03-18T17:04:24.711Z,3.50
2023-03-18T17:06:52.087Z,2.95
2023-03-18T17:09:19.490Z,2.58
2023-03-18T17:11:48.912Z,18.20
2023-03-18T17:14:31.755Z,14.13
2023-03-18T17:17:00.933Z,11.65
2023-03-18T17:19:28.412Z,7.57
2023-03-18T17:21:55.558Z,8.20
2023-03-18T17:24:25.589Z,15.30
2023-03-18T17:26:52.618Z,14.75
2023-03-18T17:29:23.676Z,6.80
2023-03-18T17:31:54.782Z,4.75
2023-03-18T17:34:22.748Z,7.32
2023-03-18T17:36:49.977Z,7.13
2023-03-18T17:39:16.929Z,9.07
2023-03-18T17:41:43.830Z,10.30
2023-03-18T17:44:24.264Z,12.18
2023-03-18T17:46:51.934Z,15.77
2023-03-18T17:49:21.632Z,14.70
2023-03-18T17:51:48.927Z,8.23
2023-03-18T17:54:20.297Z,10.82
2023-03-18T17:56:47.509Z,8.25
2023-03-18T17:59:19.965Z,14.77
2023-03-18T18:01:48.906Z,16.48
2023-03-18T18:04:24.749Z,11.90
2023-03-18T18:06:51.461Z,9.60
2023-03-18T18:09:19.274Z,12.07
2023-03-18T18:11:48.866Z,11.07
2023-03-18T18:14:24.538Z,12.15
2023-03-18T18:16:53.564Z,10.55
2023-03-18T18:19:20.555Z,16.60
2023-03-18T18:21:49.014Z,12.73
2023-03-18T18:24:28.707Z,9.70
2023-03-18T18:26:55.781Z,10.20
2023-03-18T18:29:25.087Z,9.43
2023-03-18T18:31:52.621Z,11.07
2023-03-18T18:34:21.250Z,8.73
2023-03-18T18:36:49.565Z,9.15
2023-03-18T18:39:16.539Z,9.52
2023-03-18T18:41:44.084Z,11.23
2023-03-18T18:44:11.876Z,11.55
2023-03-18T18:46:39.160Z,11.00
2023-03-18T18:49:06.378Z,25.38
2023-03-18T18:51:33.117Z,12.35
2023-03-18T18:54:00.030Z,7.22
2023-03-18T18:56:35.254Z,9.23
2023-03-18T18:59:07.096Z,6.97
2023-03-18T19:01:33.837Z,6.65
2023-03-18T19:04:02.543Z,8.10
2023-03-18T19:06:31.579Z,8.57
2023-03-18T19:09:00.705Z,8.43
2023-03-18T19:11:28.368Z,8.52
2023-03-18T19:14:17.383Z,11.52
2023-03-18T19:16:44.664Z,10.40
2023-03-18T19:19:18.081Z,9.23
2023-03-18T19:21:44.911Z,8.35
2023-03-18T19:24:39.170Z,9.30
2023-03-18T19:27:15.487Z,8.90
2023-03-18T19:29:42.518Z,12.32
2023-03-18T19:32:20.787Z,12.30
2023-03-18T19:34:48.321Z,8.88
2023-03-18T19:37:18.841Z,8.35
2023-03-18T19:39:46.703Z,6.93
2023-03-18T19:42:18.457Z,6.63
2023-03-18T19:44:46.281Z,5.35
2023-03-18T19:47:24.119Z,6.50
2023-03-18T19:49:51.183Z,4.13
2023-03-18T19:52:23.754Z,6.32
2023-03-18T19:54:51.461Z,4.28
2023-03-18T19:57:20.691Z,6.60
2023-03-18T19:59:48.572Z,5.00
2023-03-18T20:02:24.923Z,5.35
2023-03-18T20:04:54.233Z,5.88
2023-03-18T20:07:23.022Z,7.35
2023-03-18T20:09:50.189Z,6.15
2023-03-18T20:12:28.668Z,9.35
2023-03-18T20:14:55.511Z,67.83
2023-03-18T20:17:45.864Z,14.88
2023-03-18T20:20:19.239Z,8.75
2023-03-18T20:22:52.782Z,11.18
2023-03-18T20:25:25.591Z,42.97
2023-03-18T20:27:56.035Z,4.00
2023-03-18T20:30:38.609Z,4.35
2023-03-18T20:33:06.553Z,4.63
2023-03-18T20:35:36.898Z,3.25
2023-03-18T20:38:09.432Z,4.22
2023-03-18T20:40:36.545Z,4.30
2023-03-18T20:43:03.310Z,3.35
2023-03-18T20:45:30.695Z,3.72
2023-03-18T20:47:57.766Z,5.05
2023-03-18T20:50:31.102Z,4.47
2023-03-18T20:52:58.725Z,3.17
2023-03-18T20:55:29.153Z,4.07
2023-03-18T20:57:56.493Z,5.20
2023-03-18T21:00:26.815Z,5.57
2023-03-18T21:02:56.510Z,7.22
2023-03-18T21:05:24.719Z,6.00
2023-03-18T21:07:51.762Z,6.60
2023-03-18T21:10:25.011Z,6.68
2023-03-18T21:12:52.399Z,7.78
2023-03-18T21:15:25.886Z,6.18
2023-03-18T21:17:53.057Z,6.53
2023-03-18T21:20:28.724Z,6.40
2023-03-18T21:22:57.002Z,8.13
2023-03-18T21:25:26.856Z,6.35
2023-03-18T21:27:54.257Z,5.82
2023-03-18T21:30:22.909Z,6.55
2023-03-18T21:32:50.962Z,6.32
2023-03-18T21:35:20.344Z,6.50
2023-03-18T21:37:47.094Z,5.43
2023-03-18T21:40:22.424Z,6.38
2023-03-18T21:42:50.952Z,8.02
2023-03-18T21:45:20.883Z,7.43
2023-03-18T21:47:47.599Z,7.47
2023-03-18T21:50:22.412Z,7.97
2023-03-18T21:52:49.362Z,7.47
2023-03-18T21:55:16.547Z,14.65
2023-03-18T21:57:43.469Z,7.95
2023-03-18T22:00:19.964Z,10.90
2023-03-18T22:02:47.460Z,29.42
2023-03-18T22:05:24.635Z,51.80
2023-03-18T22:07:51.852Z,35.30
2023-03-18T22:10:21.193Z,16.35
2023-03-18T22:12:48.071Z,8.38
2023-03-18T22:15:24.068Z,8.52
2023-03-18T22:17:51.861Z,8.60
2023-03-18T22:20:18.897Z,7.38
2023-03-18T22:22:45.644Z,7.30
2023-03-18T22:25:32.396Z,8.05
2023-03-18T22:28:00.311Z,7.45
2023-03-18T22:30:29.642Z,7.53
2023-03-18T22:32:58.020Z,8.43
2023-03-18T22:35:27.073Z,8.35
2023-03-18T22:37:54.555Z,9.40
2023-03-18T22:40:23.691Z,8.75
2023-03-18T22:42:56.773Z,9.57
2023-03-18T22:45:26.058Z,7.57
2023-03-18T22:47:56.341Z,8.15
2023-03-18T22:50:24.809Z,7.45
2023-03-18T22:53:00.273Z,8.30
2023-03-18T22:55:31.976Z,8.82
2023-03-18T22:57:58.901Z,6.57
2023-03-18T23:00:40.468Z,6.78
2023-03-18T23:03:14.763Z,7.10
2023-03-18T23:05:41.561Z,6.93
2023-03-18T23:08:08.321Z,5.70
2023-03-18T23:10:35.125Z,6.32
2023-03-18T23:13:02.450Z,7.13
2023-03-18T23:15:29.167Z,6.53
2023-03-18T23:17:55.915Z,6.72
2023-03-18T23:20:22.648Z,6.78
2023-03-18T23:22:49.363Z,7.63
2023-03-18T23:25:17.760Z,8.23
2023-03-18T23:27:45.506Z,7.90
2023-03-18T23:30:13.781Z,7.93
2023-03-18T23:32:41.478Z,9.00
2023-03-18T23:35:09.271Z,8.15
2023-03-18T23:37:36.360Z,8.23
2023-03-18T23:40:04.148Z,7.63
2023-03-18T23:42:31.135Z,8.82
2023-03-18T23:44:57.849Z,8.65
2023-03-18T23:47:24.639Z,11.45
2023-03-18T23:49:51.383Z,9.57
2023-03-18T23:52:18.290Z,9.20
2023-03-18T23:54:45.008Z,9.63
2023-03-18T23:57:12.808Z,9.40
2023-03-18T23:59:39.560Z,9.40
